sensor_id;sensor_type;location;lat;lon;timestamp;temperature;humidity
81524;DHT22;70954;49.500;10.416;2023-12-20T00:02:21;7.40;72.00
81524;DHT22;70954;49.500;10.416;2023-12-20T00:04:47;7.40;71.90
81524;DHT22;70954;49.500;10.416;2023-12-20T00:07:12;7.40;72.20
81524;DHT22;70954;49.500;10.416;2023-12-20T00:09:38;7.40;72.30
81524;DHT22;70954;49.500;10.416;2023-12-20T00:12:03;7.30;72.50
81524;DHT22;70954;49.500;10.416;2023-12-20T00:14:29;7.30;72.20
81524;DHT22;70954;49.500;10.416;2023-12-20T00:16:54;7.30;72.30
81524;DHT22;70954;49.500;10.416;2023-12-20T00:19:20;7.30;72.10
81524;DHT22;70954;49.500;10.416;2023-12-20T00:21:45;7.20;72.30
81524;DHT22;70954;49.500;10.416;2023-12-20T00:24:11;7.20;72.10
81524;DHT22;70954;49.500;10.416;2023-12-20T00:26:36;7.20;72.30
81524;DHT22;70954;49.500;10.416;2023-12-20T00:29:02;7.20;72.60
81524;DHT22;70954;49.500;10.416;2023-12-20T00:31:27;7.20;72.40
81524;DHT22;70954;49.500;10.416;2023-12-20T00:33:53;7.20;72.20
81524;DHT22;70954;49.500;10.416;2023-12-20T00:36:18;7.20;72.30
81524;DHT22;70954;49.500;10.416;2023-12-20T00:38:44;7.20;72.80
81524;DHT22;70954;49.500;10.416;2023-12-20T00:41:09;7.20;72.50
81524;DHT22;70954;49.500;10.416;2023-12-20T00:43:35;7.20;72.20
81524;DHT22;70954;49.500;10.416;2023-12-20T00:46:00;7.20;72.70
81524;DHT22;70954;49.500;10.416;2023-12-20T00:48:26;7.20;72.30
81524;DHT22;70954;49.500;10.416;2023-12-20T00:50:51;7.20;72.40
81524;DHT22;70954;49.500;10.416;2023-12-20T00:53:17;7.10;72.70
81524;DHT22;70954;49.500;10.416;2023-12-20T00:55:42;7.10;72.70
81524;DHT22;70954;49.500;10.416;2023-12-20T00:58:08;7.00;72.80
81524;DHT22;70954;49.500;10.416;2023-12-20T01:00:33;7.00;73.20
81524;DHT22;70954;49.500;10.416;2023-12-20T01:02:58;7.00;72.90
81524;DHT22;70954;49.500;10.416;2023-12-20T01:05:24;7.00;72.90
81524;DHT22;70954;49.500;10.416;2023-12-20T01:07:49;7.00;73.10
81524;DHT22;70954;49.500;10.416;2023-12-20T01:10:15;7.00;72.90
81524;DHT22;70954;49.500;10.416;2023-12-20T01:12:40;7.00;73.00
81524;DHT22;70954;49.500;10.416;2023-12-20T01:15:06;7.00;72.90
81524;DHT22;70954;49.500;10.416;2023-12-20T01:17:31;7.00;73.30
81524;DHT22;70954;49.500;10.416;2023-12-20T01:19:57;7.00;73.00
81524;DHT22;70954;49.500;10.416;2023-12-20T01:22:22;7.00;73.30
81524;DHT22;70954;49.500;10.416;2023-12-20T01:24:48;7.00;73.30
81524;DHT22;70954;49.500;10.416;2023-12-20T01:27:13;7.00;73.20
81524;DHT22;70954;49.500;10.416;2023-12-20T01:29:39;7.00;73.20
81524;DHT22;70954;49.500;10.416;2023-12-20T01:32:05;7.00;73.20
81524;DHT22;70954;49.500;10.416;2023-12-20T01:34:30;7.00;73.00
81524;DHT22;70954;49.500;10.416;2023-12-20T01:36:56;7.00;73.00
81524;DHT22;70954;49.500;10.416;2023-12-20T01:39:21;7.00;72.90
81524;DHT22;70954;49.500;10.416;2023-12-20T01:41:46;7.00;73.10
81524;DHT22;70954;49.500;10.416;2023-12-20T01:44:12;6.90;73.10
81524;DHT22;70954;49.500;10.416;2023-12-20T01:46:38;6.90;73.00
81524;DHT22;70954;49.500;10.416;2023-12-20T01:49:03;6.90;73.20
81524;DHT22;70954;49.500;10.416;2023-12-20T01:51:29;6.90;73.10
81524;DHT22;70954;49.500;10.416;2023-12-20T01:53:56;6.90;73.00
81524;DHT22;70954;49.500;10.416;2023-12-20T01:56:23;6.90;72.90
81524;DHT22;70954;49.500;10.416;2023-12-20T01:58:48;6.90;73.10
81524;DHT22;70954;49.500;10.416;2023-12-20T02:01:15;6.80;72.90
81524;DHT22;70954;49.500;10.416;2023-12-20T02:03:41;6.80;73.00
81524;DHT22;70954;49.500;10.416;2023-12-20T02:06:08;6.80;73.00
81524;DHT22;70954;49.500;10.416;2023-12-20T02:08:35;6.70;72.90
81524;DHT22;70954;49.500;10.416;2023-12-20T02:11:01;6.70;72.90
81524;DHT22;70954;49.500;10.416;2023-12-20T02:13:26;6.70;72.90
81524;DHT22;70954;49.500;10.416;2023-12-20T02:15:52;6.70;73.20
81524;DHT22;70954;49.500;10.416;2023-12-20T02:18:18;6.70;73.20
81524;DHT22;70954;49.500;10.416;2023-12-20T02:20:43;6.70;73.00
81524;DHT22;70954;49.500;10.416;2023-12-20T02:23:09;6.60;73.00
81524;DHT22;70954;49.500;10.416;2023-12-20T02:25:34;6.60;73.10
81524;DHT22;70954;49.500;10.416;2023-12-20T02:28:00;6.60;73.20
81524;DHT22;70954;49.500;10.416;2023-12-20T02:30:26;6.60;73.10
81524;DHT22;70954;49.500;10.416;2023-12-20T02:32:52;6.60;73.00
81524;DHT22;70954;49.500;10.416;2023-12-20T02:35:18;6.50;73.20
81524;DHT22;70954;49.500;10.416;2023-12-20T02:37:44;6.50;73.20
81524;DHT22;70954;49.500;10.416;2023-12-20T02:40:09;6.50;73.30
81524;DHT22;70954;49.500;10.416;2023-12-20T02:42:35;6.50;73.20
81524;DHT22;70954;49.500;10.416;2023-12-20T02:45:00;6.50;73.30
81524;DHT22;70954;49.500;10.416;2023-12-20T02:47:26;6.40;73.10
81524;DHT22;70954;49.500;10.416;2023-12-20T02:49:51;6.40;73.20
81524;DHT22;70954;49.500;10.416;2023-12-20T02:52:17;6.40;73.20
81524;DHT22;70954;49.500;10.416;2023-12-20T02:54:42;6.40;73.20
81524;DHT22;70954;49.500;10.416;2023-12-20T02:57:08;6.40;73.60
81524;DHT22;70954;49.500;10.416;2023-12-20T02:59:33;6.40;73.50
81524;DHT22;70954;49.500;10.416;2023-12-20T03:01:59;6.40;73.30
81524;DHT22;70954;49.500;10.416;2023-12-20T03:04:24;6.40;73.50
81524;DHT22;70954;49.500;10.416;2023-12-20T03:06:49;6.40;73.40
81524;DHT22;70954;49.500;10.416;2023-12-20T03:09:15;6.40;73.40
81524;DHT22;70954;49.500;10.416;2023-12-20T03:11:41;6.40;73.40
81524;DHT22;70954;49.500;10.416;2023-12-20T03:14:06;6.40;73.30
81524;DHT22;70954;49.500;10.416;2023-12-20T03:16:31;6.40;73.30
81524;DHT22;70954;49.500;10.416;2023-12-20T03:18:57;6.40;73.30
81524;DHT22;70954;49.500;10.416;2023-12-20T03:21:22;6.40;73.50
81524;DHT22;70954;49.500;10.416;2023-12-20T03:23:48;6.40;73.30
81524;DHT22;70954;49.500;10.416;2023-12-20T03:26:13;6.40;73.50
81524;DHT22;70954;49.500;10.416;2023-12-20T03:28:39;6.40;73.50
81524;DHT22;70954;49.500;10.416;2023-12-20T03:31:04;6.30;73.50
81524;DHT22;70954;49.500;10.416;2023-12-20T03:33:30;6.30;73.90
81524;DHT22;70954;49.500;10.416;2023-12-20T03:35:55;6.40;73.50
81524;DHT22;70954;49.500;10.416;2023-12-20T03:38:21;6.30;73.50
81524;DHT22;70954;49.500;10.416;2023-12-20T03:40:47;6.30;73.50
81524;DHT22;70954;49.500;10.416;2023-12-20T03:43:12;6.30;73.90
81524;DHT22;70954;49.500;10.416;2023-12-20T03:45:38;6.30;73.50
81524;DHT22;70954;49.500;10.416;2023-12-20T03:48:04;6.30;73.80
81524;DHT22;70954;49.500;10.416;2023-12-20T03:50:29;6.30;73.60
81524;DHT22;70954;49.500;10.416;2023-12-20T03:52:55;6.30;73.60
81524;DHT22;70954;49.500;10.416;2023-12-20T03:55:20;6.20;73.70
81524;DHT22;70954;49.500;10.416;2023-12-20T03:57:46;6.20;73.80
81524;DHT22;70954;49.500;10.416;2023-12-20T04:00:11;6.20;73.80
81524;DHT22;70954;49.500;10.416;2023-12-20T04:02:38;6.20;73.90
81524;DHT22;70954;49.500;10.416;2023-12-20T04:05:04;6.20;73.70
81524;DHT22;70954;49.500;10.416;2023-12-20T04:07:30;6.20;73.80
81524;DHT22;70954;49.500;10.416;2023-12-20T04:09:55;6.20;73.80
81524;DHT22;70954;49.500;10.416;2023-12-20T04:12:20;6.10;74.00
81524;DHT22;70954;49.500;10.416;2023-12-20T04:14:46;6.10;74.20
81524;DHT22;70954;49.500;10.416;2023-12-20T04:17:11;6.10;74.10
81524;DHT22;70954;49.500;10.416;2023-12-20T04:19:37;6.10;73.90
81524;DHT22;70954;49.500;10.416;2023-12-20T04:22:02;6.10;73.90
81524;DHT22;70954;49.500;10.416;2023-12-20T04:24:28;6.10;73.90
81524;DHT22;70954;49.500;10.416;2023-12-20T04:26:53;6.00;74.20
81524;DHT22;70954;49.500;10.416;2023-12-20T04:29:19;6.00;74.10
81524;DHT22;70954;49.500;10.416;2023-12-20T04:31:44;6.00;74.10
81524;DHT22;70954;49.500;10.416;2023-12-20T04:34:10;6.00;74.20
81524;DHT22;70954;49.500;10.416;2023-12-20T04:36:35;6.00;74.20
81524;DHT22;70954;49.500;10.416;2023-12-20T04:39:01;6.00;74.00
81524;DHT22;70954;49.500;10.416;2023-12-20T04:41:26;6.00;74.10
81524;DHT22;70954;49.500;10.416;2023-12-20T04:43:51;6.00;74.10
81524;DHT22;70954;49.500;10.416;2023-12-20T04:46:17;6.00;74.10
81524;DHT22;70954;49.500;10.416;2023-12-20T04:48:42;6.00;74.40
81524;DHT22;70954;49.500;10.416;2023-12-20T04:51:08;6.00;74.20
81524;DHT22;70954;49.500;10.416;2023-12-20T04:53:33;6.00;74.10
81524;DHT22;70954;49.500;10.416;2023-12-20T04:55:59;5.90;74.10
81524;DHT22;70954;49.500;10.416;2023-12-20T04:58:24;6.00;74.20
81524;DHT22;70954;49.500;10.416;2023-12-20T05:00:50;5.90;74.50
81524;DHT22;70954;49.500;10.416;2023-12-20T05:03:15;5.90;74.30
81524;DHT22;70954;49.500;10.416;2023-12-20T05:05:40;5.90;74.30
81524;DHT22;70954;49.500;10.416;2023-12-20T05:08:06;5.90;74.30
81524;DHT22;70954;49.500;10.416;2023-12-20T05:10:31;5.90;74.20
81524;DHT22;70954;49.500;10.416;2023-12-20T05:12:57;6.00;74.20
81524;DHT22;70954;49.500;10.416;2023-12-20T05:15:22;6.00;74.20
81524;DHT22;70954;49.500;10.416;2023-12-20T05:17:48;6.00;74.40
81524;DHT22;70954;49.500;10.416;2023-12-20T05:20:13;6.00;74.40
81524;DHT22;70954;49.500;10.416;2023-12-20T05:22:38;6.00;74.40
81524;DHT22;70954;49.500;10.416;2023-12-20T05:25:04;6.00;74.60
81524;DHT22;70954;49.500;10.416;2023-12-20T05:27:30;6.00;74.40
81524;DHT22;70954;49.500;10.416;2023-12-20T05:29:55;6.00;74.50
81524;DHT22;70954;49.500;10.416;2023-12-20T05:32:21;6.00;74.50
81524;DHT22;70954;49.500;10.416;2023-12-20T05:34:46;6.00;74.50
81524;DHT22;70954;49.500;10.416;2023-12-20T05:37:11;6.00;74.40
81524;DHT22;70954;49.500;10.416;2023-12-20T05:39:37;6.00;74.60
81524;DHT22;70954;49.500;10.416;2023-12-20T05:42:02;6.00;74.50
81524;DHT22;70954;49.500;10.416;2023-12-20T05:44:28;6.00;74.70
81524;DHT22;70954;49.500;10.416;2023-12-20T05:46:53;6.10;74.50
81524;DHT22;70954;49.500;10.416;2023-12-20T05:49:19;6.10;74.50
81524;DHT22;70954;49.500;10.416;2023-12-20T05:51:44;6.10;74.60
81524;DHT22;70954;49.500;10.416;2023-12-20T05:54:10;6.10;74.70
81524;DHT22;70954;49.500;10.416;2023-12-20T05:56:35;6.10;74.80
81524;DHT22;70954;49.500;10.416;2023-12-20T05:59:00;6.10;74.60
81524;DHT22;70954;49.500;10.416;2023-12-20T06:01:26;6.10;74.60
81524;DHT22;70954;49.500;10.416;2023-12-20T06:03:51;6.20;74.50
81524;DHT22;70954;49.500;10.416;2023-12-20T06:06:17;6.20;74.60
81524;DHT22;70954;49.500;10.416;2023-12-20T06:08:42;6.20;74.50
81524;DHT22;70954;49.500;10.416;2023-12-20T06:11:08;6.20;74.50
81524;DHT22;70954;49.500;10.416;2023-12-20T06:13:33;6.20;74.60
81524;DHT22;70954;49.500;10.416;2023-12-20T06:15:58;6.20;74.60
81524;DHT22;70954;49.500;10.416;2023-12-20T06:18:24;6.20;74.70
81524;DHT22;70954;49.500;10.416;2023-12-20T06:20:49;6.20;74.70
81524;DHT22;70954;49.500;10.416;2023-12-20T06:23:15;6.30;74.70
81524;DHT22;70954;49.500;10.416;2023-12-20T06:25:40;6.30;74.50
81524;DHT22;70954;49.500;10.416;2023-12-20T06:28:06;6.30;74.70
81524;DHT22;70954;49.500;10.416;2023-12-20T06:30:31;6.30;74.60
81524;DHT22;70954;49.500;10.416;2023-12-20T06:32:57;6.30;74.50
81524;DHT22;70954;49.500;10.416;2023-12-20T06:35:22;6.40;74.50
81524;DHT22;70954;49.500;10.416;2023-12-20T06:37:47;6.40;74.80
81524;DHT22;70954;49.500;10.416;2023-12-20T06:40:13;6.40;74.60
81524;DHT22;70954;49.500;10.416;2023-12-20T06:42:38;6.40;74.50
81524;DHT22;70954;49.500;10.416;2023-12-20T06:45:04;6.40;74.60
81524;DHT22;70954;49.500;10.416;2023-12-20T06:47:30;6.40;74.60
81524;DHT22;70954;49.500;10.416;2023-12-20T06:49:55;6.40;74.80
81524;DHT22;70954;49.500;10.416;2023-12-20T06:52:21;6.40;74.80
81524;DHT22;70954;49.500;10.416;2023-12-20T06:54:46;6.40;75.30
81524;DHT22;70954;49.500;10.416;2023-12-20T06:57:12;6.40;75.10
81524;DHT22;70954;49.500;10.416;2023-12-20T06:59:40;6.40;75.00
81524;DHT22;70954;49.500;10.416;2023-12-20T07:02:06;6.40;75.10
81524;DHT22;70954;49.500;10.416;2023-12-20T07:04:32;6.50;75.00
81524;DHT22;70954;49.500;10.416;2023-12-20T07:06:57;6.50;75.10
81524;DHT22;70954;49.500;10.416;2023-12-20T07:09:23;6.50;75.20
81524;DHT22;70954;49.500;10.416;2023-12-20T07:11:48;6.50;75.10
81524;DHT22;70954;49.500;10.416;2023-12-20T07:14:14;6.50;75.40
81524;DHT22;70954;49.500;10.416;2023-12-20T07:16:40;6.50;75.30
81524;DHT22;70954;49.500;10.416;2023-12-20T07:19:05;6.50;75.20
81524;DHT22;70954;49.500;10.416;2023-12-20T07:21:31;6.50;75.20
81524;DHT22;70954;49.500;10.416;2023-12-20T07:23:56;6.50;75.50
81524;DHT22;70954;49.500;10.416;2023-12-20T07:26:21;6.50;75.80
81524;DHT22;70954;49.500;10.416;2023-12-20T07:28:47;6.50;75.50
81524;DHT22;70954;49.500;10.416;2023-12-20T07:31:12;6.50;75.20
81524;DHT22;70954;49.500;10.416;2023-12-20T07:33:40;6.50;75.60
81524;DHT22;70954;49.500;10.416;2023-12-20T07:36:05;6.50;75.30
81524;DHT22;70954;49.500;10.416;2023-12-20T07:38:31;6.50;75.20
81524;DHT22;70954;49.500;10.416;2023-12-20T07:40:56;6.50;75.10
81524;DHT22;70954;49.500;10.416;2023-12-20T07:43:22;6.50;75.10
81524;DHT22;70954;49.500;10.416;2023-12-20T07:45:47;6.50;75.10
81524;DHT22;70954;49.500;10.416;2023-12-20T07:48:13;6.50;75.10
81524;DHT22;70954;49.500;10.416;2023-12-20T07:50:38;6.50;75.10
81524;DHT22;70954;49.500;10.416;2023-12-20T07:53:04;6.50;75.00
81524;DHT22;70954;49.500;10.416;2023-12-20T07:55:29;6.60;74.80
81524;DHT22;70954;49.500;10.416;2023-12-20T07:57:54;6.60;74.70
81524;DHT22;70954;49.500;10.416;2023-12-20T08:00:21;6.60;74.50
81524;DHT22;70954;49.500;10.416;2023-12-20T08:02:46;6.60;74.30
81524;DHT22;70954;49.500;10.416;2023-12-20T08:05:12;6.60;74.10
81524;DHT22;70954;49.500;10.416;2023-12-20T08:07:37;6.50;74.00
81524;DHT22;70954;49.500;10.416;2023-12-20T08:10:03;6.50;73.80
81524;DHT22;70954;49.500;10.416;2023-12-20T08:12:28;6.50;73.70
81524;DHT22;70954;49.500;10.416;2023-12-20T08:14:54;6.50;73.80
81524;DHT22;70954;49.500;10.416;2023-12-20T08:17:20;6.40;73.80
81524;DHT22;70954;49.500;10.416;2023-12-20T08:19:45;6.40;73.80
81524;DHT22;70954;49.500;10.416;2023-12-20T08:22:11;6.40;73.70
81524;DHT22;70954;49.500;10.416;2023-12-20T08:24:37;6.40;73.60
81524;DHT22;70954;49.500;10.416;2023-12-20T08:27:03;6.30;73.50
81524;DHT22;70954;49.500;10.416;2023-12-20T08:29:29;6.30;73.50
81524;DHT22;70954;49.500;10.416;2023-12-20T08:31:55;6.30;73.60
81524;DHT22;70954;49.500;10.416;2023-12-20T08:34:20;6.30;73.60
81524;DHT22;70954;49.500;10.416;2023-12-20T08:36:46;6.20;73.60
81524;DHT22;70954;49.500;10.416;2023-12-20T08:39:11;6.20;73.60
81524;DHT22;70954;49.500;10.416;2023-12-20T08:41:37;6.20;73.70
81524;DHT22;70954;49.500;10.416;2023-12-20T08:44:02;6.20;73.90
81524;DHT22;70954;49.500;10.416;2023-12-20T08:46:28;6.20;73.90
81524;DHT22;70954;49.500;10.416;2023-12-20T08:48:53;6.20;74.00
81524;DHT22;70954;49.500;10.416;2023-12-20T08:51:19;6.20;74.10
81524;DHT22;70954;49.500;10.416;2023-12-20T08:53:44;6.20;74.10
81524;DHT22;70954;49.500;10.416;2023-12-20T08:56:09;6.20;74.20
81524;DHT22;70954;49.500;10.416;2023-12-20T08:58:35;6.20;74.10
81524;DHT22;70954;49.500;10.416;2023-12-20T09:01:00;6.20;74.10
81524;DHT22;70954;49.500;10.416;2023-12-20T09:03:26;6.20;74.10
81524;DHT22;70954;49.500;10.416;2023-12-20T09:05:51;6.20;74.10
81524;DHT22;70954;49.500;10.416;2023-12-20T09:08:17;6.30;74.00
81524;DHT22;70954;49.500;10.416;2023-12-20T09:10:42;6.30;73.80
81524;DHT22;70954;49.500;10.416;2023-12-20T09:13:07;6.30;73.80
81524;DHT22;70954;49.500;10.416;2023-12-20T09:15:33;6.30;73.70
81524;DHT22;70954;49.500;10.416;2023-12-20T09:17:58;6.30;73.30
81524;DHT22;70954;49.500;10.416;2023-12-20T09:20:24;6.40;73.20
81524;DHT22;70954;49.500;10.416;2023-12-20T09:22:49;6.40;73.00
81524;DHT22;70954;49.500;10.416;2023-12-20T09:25:15;6.40;72.90
81524;DHT22;70954;49.500;10.416;2023-12-20T09:27:40;6.40;72.60
81524;DHT22;70954;49.500;10.416;2023-12-20T09:30:06;6.50;72.60
81524;DHT22;70954;49.500;10.416;2023-12-20T09:32:32;6.50;72.40
81524;DHT22;70954;49.500;10.416;2023-12-20T09:34:57;6.50;72.60
81524;DHT22;70954;49.500;10.416;2023-12-20T09:37:25;6.50;72.20
81524;DHT22;70954;49.500;10.416;2023-12-20T09:39:51;6.60;72.40
81524;DHT22;70954;49.500;10.416;2023-12-20T09:45:08;6.60;71.80
81524;DHT22;70954;49.500;10.416;2023-12-20T09:47:35;6.70;71.30
81524;DHT22;70954;49.500;10.416;2023-12-20T09:50:01;6.70;71.50
81524;DHT22;70954;49.500;10.416;2023-12-20T09:52:27;6.80;71.20
81524;DHT22;70954;49.500;10.416;2023-12-20T09:54:53;6.80;70.50
81524;DHT22;70954;49.500;10.416;2023-12-20T09:57:18;6.80;70.80
81524;DHT22;70954;49.500;10.416;2023-12-20T09:59:44;6.80;70.80
81524;DHT22;70954;49.500;10.416;2023-12-20T10:02:13;6.90;71.20
81524;DHT22;70954;49.500;10.416;2023-12-20T10:04:42;6.90;71.20
81524;DHT22;70954;49.500;10.416;2023-12-20T10:07:11;7.00;71.10
81524;DHT22;70954;49.500;10.416;2023-12-20T10:09:37;7.00;70.10
81524;DHT22;70954;49.500;10.416;2023-12-20T10:12:03;7.00;70.00
81524;DHT22;70954;49.500;10.416;2023-12-20T10:14:29;7.00;69.70
81524;DHT22;70954;49.500;10.416;2023-12-20T10:17:04;7.10;69.50
81524;DHT22;70954;49.500;10.416;2023-12-20T10:19:31;7.20;69.70
81524;DHT22;70954;49.500;10.416;2023-12-20T10:21:58;7.20;69.60
81524;DHT22;70954;49.500;10.416;2023-12-20T10:24:24;7.20;69.70
81524;DHT22;70954;49.500;10.416;2023-12-20T10:27:07;7.20;69.80
81524;DHT22;70954;49.500;10.416;2023-12-20T10:29:36;7.20;69.10
81524;DHT22;70954;49.500;10.416;2023-12-20T10:32:24;7.20;69.30
81524;DHT22;70954;49.500;10.416;2023-12-20T10:34:51;7.20;68.90
81524;DHT22;70954;49.500;10.416;2023-12-20T10:37:16;7.30;68.90
81524;DHT22;70954;49.500;10.416;2023-12-20T10:39:42;7.30;68.70
81524;DHT22;70954;49.500;10.416;2023-12-20T10:42:10;7.30;68.60
81524;DHT22;70954;49.500;10.416;2023-12-20T10:44:36;7.30;68.70
81524;DHT22;70954;49.500;10.416;2023-12-20T10:47:03;7.30;68.80
81524;DHT22;70954;49.500;10.416;2023-12-20T10:49:30;7.30;69.00
81524;DHT22;70954;49.500;10.416;2023-12-20T10:51:57;7.30;68.70
81524;DHT22;70954;49.500;10.416;2023-12-20T10:54:25;7.30;68.90
81524;DHT22;70954;49.500;10.416;2023-12-20T10:56:52;7.30;69.00
81524;DHT22;70954;49.500;10.416;2023-12-20T10:59:19;7.30;68.90
81524;DHT22;70954;49.500;10.416;2023-12-20T11:01:47;7.30;69.10
81524;DHT22;70954;49.500;10.416;2023-12-20T11:04:18;7.40;68.90
81524;DHT22;70954;49.500;10.416;2023-12-20T11:06:59;7.40;69.00
81524;DHT22;70954;49.500;10.416;2023-12-20T11:09:40;7.40;68.70
81524;DHT22;70954;49.500;10.416;2023-12-20T11:12:44;7.40;68.70
81524;DHT22;70954;49.500;10.416;2023-12-20T11:15:13;7.40;68.30
81524;DHT22;70954;49.500;10.416;2023-12-20T11:17:39;7.40;68.70
81524;DHT22;70954;49.500;10.416;2023-12-20T11:20:07;7.40;68.90
81524;DHT22;70954;49.500;10.416;2023-12-20T11:22:33;7.40;69.00
81524;DHT22;70954;49.500;10.416;2023-12-20T11:25:07;7.40;68.90
81524;DHT22;70954;49.500;10.416;2023-12-20T11:27:32;7.40;69.00
81524;DHT22;70954;49.500;10.416;2023-12-20T11:29:58;7.40;68.70
81524;DHT22;70954;49.500;10.416;2023-12-20T11:34:51;7.40;68.30
81524;DHT22;70954;49.500;10.416;2023-12-20T11:37:16;7.40;68.20
81524;DHT22;70954;49.500;10.416;2023-12-20T11:39:44;7.40;68.40
81524;DHT22;70954;49.500;10.416;2023-12-20T11:42:10;7.40;68.50
81524;DHT22;70954;49.500;10.416;2023-12-20T11:44:37;7.40;68.30
81524;DHT22;70954;49.500;10.416;2023-12-20T11:47:02;7.40;68.30
81524;DHT22;70954;49.500;10.416;2023-12-20T11:49:28;7.40;68.30
81524;DHT22;70954;49.500;10.416;2023-12-20T11:51:53;7.40;68.50
81524;DHT22;70954;49.500;10.416;2023-12-20T11:54:19;7.40;68.50
81524;DHT22;70954;49.500;10.416;2023-12-20T11:56:44;7.40;68.50
81524;DHT22;70954;49.500;10.416;2023-12-20T11:59:10;7.50;68.50
81524;DHT22;70954;49.500;10.416;2023-12-20T12:01:35;7.50;68.50
81524;DHT22;70954;49.500;10.416;2023-12-20T12:04:06;7.50;68.40
81524;DHT22;70954;49.500;10.416;2023-12-20T12:06:32;7.50;68.60
81524;DHT22;70954;49.500;10.416;2023-12-20T12:08:58;7.50;68.30
81524;DHT22;70954;49.500;10.416;2023-12-20T12:11:23;7.50;68.20
81524;DHT22;70954;49.500;10.416;2023-12-20T12:13:49;7.60;68.00
81524;DHT22;70954;49.500;10.416;2023-12-20T12:16:18;7.60;68.00
81524;DHT22;70954;49.500;10.416;2023-12-20T12:18:45;7.60;68.00
81524;DHT22;70954;49.500;10.416;2023-12-20T12:21:11;7.60;67.70
81524;DHT22;70954;49.500;10.416;2023-12-20T12:23:43;7.60;67.30
81524;DHT22;70954;49.500;10.416;2023-12-20T12:26:09;7.60;67.40
81524;DHT22;70954;49.500;10.416;2023-12-20T12:28:34;7.60;67.10
81524;DHT22;70954;49.500;10.416;2023-12-20T12:31:00;7.60;67.00
81524;DHT22;70954;49.500;10.416;2023-12-20T12:33:26;7.60;67.00
81524;DHT22;70954;49.500;10.416;2023-12-20T12:35:52;7.60;67.20
81524;DHT22;70954;49.500;10.416;2023-12-20T12:38:21;7.60;67.30
81524;DHT22;70954;49.500;10.416;2023-12-20T12:40:47;7.60;67.40
81524;DHT22;70954;49.500;10.416;2023-12-20T12:43:12;7.60;67.20
81524;DHT22;70954;49.500;10.416;2023-12-20T12:45:38;7.50;67.00
81524;DHT22;70954;49.500;10.416;2023-12-20T12:48:04;7.50;66.90
81524;DHT22;70954;49.500;10.416;2023-12-20T12:50:30;7.50;67.20
81524;DHT22;70954;49.500;10.416;2023-12-20T12:52:56;7.50;66.50
81524;DHT22;70954;49.500;10.416;2023-12-20T12:55:21;7.50;66.50
81524;DHT22;70954;49.500;10.416;2023-12-20T12:57:47;7.40;66.70
81524;DHT22;70954;49.500;10.416;2023-12-20T13:00:13;7.40;66.90
81524;DHT22;70954;49.500;10.416;2023-12-20T13:02:38;7.40;67.10
81524;DHT22;70954;49.500;10.416;2023-12-20T13:05:04;7.40;66.90
81524;DHT22;70954;49.500;10.416;2023-12-20T13:07:30;7.30;66.70
81524;DHT22;70954;49.500;10.416;2023-12-20T13:09:55;7.30;66.80
81524;DHT22;70954;49.500;10.416;2023-12-20T13:12:21;7.20;66.80
81524;DHT22;70954;49.500;10.416;2023-12-20T13:14:46;7.20;66.90
81524;DHT22;70954;49.500;10.416;2023-12-20T13:17:12;7.20;67.10
81524;DHT22;70954;49.500;10.416;2023-12-20T13:19:38;7.20;67.20
81524;DHT22;70954;49.500;10.416;2023-12-20T13:22:03;7.20;67.00
81524;DHT22;70954;49.500;10.416;2023-12-20T13:24:29;7.20;67.30
81524;DHT22;70954;49.500;10.416;2023-12-20T13:26:55;7.20;67.50
81524;DHT22;70954;49.500;10.416;2023-12-20T13:29:20;7.20;67.20
81524;DHT22;70954;49.500;10.416;2023-12-20T13:31:46;7.20;67.40
81524;DHT22;70954;49.500;10.416;2023-12-20T13:34:11;7.20;67.20
81524;DHT22;70954;49.500;10.416;2023-12-20T13:36:37;7.20;67.10
81524;DHT22;70954;49.500;10.416;2023-12-20T13:39:03;7.20;66.80
81524;DHT22;70954;49.500;10.416;2023-12-20T13:41:28;7.20;67.00
81524;DHT22;70954;49.500;10.416;2023-12-20T13:43:54;7.20;66.90
81524;DHT22;70954;49.500;10.416;2023-12-20T13:46:19;7.20;66.90
81524;DHT22;70954;49.500;10.416;2023-12-20T13:48:45;7.10;66.90
81524;DHT22;70954;49.500;10.416;2023-12-20T13:51:10;7.10;67.00
81524;DHT22;70954;49.500;10.416;2023-12-20T13:53:36;7.00;67.10
81524;DHT22;70954;49.500;10.416;2023-12-20T13:56:01;7.00;67.20
81524;DHT22;70954;49.500;10.416;2023-12-20T13:58:27;7.00;67.20
81524;DHT22;70954;49.500;10.416;2023-12-20T14:00:52;7.00;67.30
81524;DHT22;70954;49.500;10.416;2023-12-20T14:03:18;7.00;67.40
81524;DHT22;70954;49.500;10.416;2023-12-20T14:05:43;7.00;67.60
81524;DHT22;70954;49.500;10.416;2023-12-20T14:08:08;6.90;67.70
81524;DHT22;70954;49.500;10.416;2023-12-20T14:10:34;6.90;68.00
81524;DHT22;70954;49.500;10.416;2023-12-20T14:12:59;6.90;68.20
81524;DHT22;70954;49.500;10.416;2023-12-20T14:15:25;6.90;68.20
81524;DHT22;70954;49.500;10.416;2023-12-20T14:17:51;6.90;68.30
81524;DHT22;70954;49.500;10.416;2023-12-20T14:20:16;6.80;68.40
81524;DHT22;70954;49.500;10.416;2023-12-20T14:22:42;6.80;68.50
81524;DHT22;70954;49.500;10.416;2023-12-20T14:25:07;6.80;68.70
81524;DHT22;70954;49.500;10.416;2023-12-20T14:27:33;6.70;68.70
81524;DHT22;70954;49.500;10.416;2023-12-20T14:29:58;6.70;68.70
81524;DHT22;70954;49.500;10.416;2023-12-20T14:32:24;6.70;68.70
81524;DHT22;70954;49.500;10.416;2023-12-20T14:34:50;6.70;68.90
81524;DHT22;70954;49.500;10.416;2023-12-20T14:37:15;6.70;68.90
81524;DHT22;70954;49.500;10.416;2023-12-20T14:39:40;6.60;69.00
81524;DHT22;70954;49.500;10.416;2023-12-20T14:42:06;6.60;68.90
81524;DHT22;70954;49.500;10.416;2023-12-20T14:44:32;6.60;68.90
81524;DHT22;70954;49.500;10.416;2023-12-20T14:46:57;6.60;69.00
81524;DHT22;70954;49.500;10.416;2023-12-20T14:49:23;6.60;69.00
81524;DHT22;70954;49.500;10.416;2023-12-20T14:51:48;6.60;68.90
81524;DHT22;70954;49.500;10.416;2023-12-20T14:54:14;6.60;68.80
81524;DHT22;70954;49.500;10.416;2023-12-20T14:56:40;6.60;68.80
81524;DHT22;70954;49.500;10.416;2023-12-20T14:59:05;6.60;68.80
81524;DHT22;70954;49.500;10.416;2023-12-20T15:01:31;6.60;68.80
81524;DHT22;70954;49.500;10.416;2023-12-20T15:03:56;6.60;68.80
81524;DHT22;70954;49.500;10.416;2023-12-20T15:06:22;6.60;68.70
81524;DHT22;70954;49.500;10.416;2023-12-20T15:08:47;6.60;68.60
81524;DHT22;70954;49.500;10.416;2023-12-20T15:11:13;6.50;68.60
81524;DHT22;70954;49.500;10.416;2023-12-20T15:13:38;6.50;68.60
81524;DHT22;70954;49.500;10.416;2023-12-20T15:16:04;6.50;68.60
81524;DHT22;70954;49.500;10.416;2023-12-20T15:18:31;6.50;68.70
81524;DHT22;70954;49.500;10.416;2023-12-20T15:20:56;6.50;68.60
81524;DHT22;70954;49.500;10.416;2023-12-20T15:23:21;6.50;68.60
81524;DHT22;70954;49.500;10.416;2023-12-20T15:25:47;6.50;68.60
81524;DHT22;70954;49.500;10.416;2023-12-20T15:28:12;6.50;68.70